Happy Valentine's Day! 

Flight Track Log - Related Links

Times and Time Zones

All times are in EST time to prevent confusion due to time zone crossing. See the FSR411 flight status page for this flight to view local times or setup timezone preferences in your user account.


Time Position Orientation Groundspeed Altitude Reporting Facility
EST Latitude Longitude Course Direction KTS MPH feet Rate Location/Type
Tue 06:54:24 AM 40.0781 -88.2794 65° Northeast 212 244 3,700  Level Chicago Center
Tue 06:55:25 AM 40.1000 -88.2150 66° East 217 250 7,300 2,876 Climbing Chicago Center
Tue 06:56:25 AM 40.1267 -88.1311 67° East 274 315 9,500 2,678 Climbing Chicago Center
Tue 06:57:00 AM 40.2669 -87.5160 65° Northeast  Level FlightAware Approximate
Tue 06:57:26 AM 40.1586 -88.0242 69° East 313 360 12,700  Level Chicago Center
Tue 06:58:00 AM 40.3103 -87.3924 65° Northeast  Level FlightAware Approximate
Tue 06:58:26 AM 40.2033 -87.8761 68° East 373 429 16,700  Level Chicago Center
Tue 06:59:00 AM 40.3536 -87.2687 65° Northeast  Level FlightAware Approximate
Tue 06:59:27 AM 40.2472 -87.7317 68° East 422 486 19,600  Level Chicago Center
Tue 07:00:27 AM 40.2942 -87.5772 68° East 452 520 23,000 3,174 Climbing Chicago Center
Tue 07:01:28 AM 40.3450 -87.4108 68° East 471 542 26,000 1,983 Climbing Chicago Center
Tue 07:02:28 AM 40.3950 -87.2394 69° East 498 573 27,000 496 Climbing Chicago Center
Tue 07:03:29 AM 40.4483 -87.0597 69° East 524 603 27,000  Level Chicago Center
Tue 07:04:29 AM 40.5008 -86.8808 69° East 524 603 27,000  Level Chicago Center
Tue 07:05:30 AM 40.5522 -86.7039 69° East 519 597 27,000  Level Chicago Center
Tue 07:06:30 AM 40.6033 -86.5281 69° East 516 594 27,000  Level Chicago Center
Tue 07:07:31 AM 40.6547 -86.3536 69° East 512 589 27,000  Level Chicago Center
Tue 07:08:31 AM 40.7017 -86.1878 69° East 510 587 27,000  Level Chicago Center
Tue 07:09:32 AM 40.7517 -86.0125 69° East 512 589 27,000  Level Chicago Center
Tue 07:10:33 AM 40.8003 -85.8397 70° East 507 583 27,000  Level Chicago Center
Tue 07:11:33 AM 40.8486 -85.6650 70° East 510 587 27,000 -1,041 Level Chicago Center
Tue 07:12:34 AM 40.8950 -85.4969 70° East 493 567 24,900 -1,835 Descending Chicago Center
Tue 07:13:34 AM 40.9383 -85.3394 70° East 464 534 23,300 -942 Descending Chicago Center
Tue 07:14:35 AM 40.9939 -85.1364 70° East 487 560 23,000 -148 Descending Chicago Center
Tue 07:15:36 AM 41.0467 -84.9733 67° East 488 562 23,000 -344 Level Chicago Center
Tue 07:16:37 AM 41.0967 -84.8111 68° East 482 555 22,300 -992 Descending Chicago Center
Tue 07:17:37 AM 41.1461 -84.6525 67° East 473 544 21,000 -1,339 Descending Chicago Center
Tue 07:18:38 AM 41.1933 -84.4975 68° East 461 531 19,600 -1,388 Descending Chicago Center
Tue 07:19:38 AM 41.2397 -84.3450 68° East 451 519 18,200 -1,140 Descending Chicago Center
Tue 07:20:39 AM 41.2847 -84.1981 68° East 437 503 17,300 -1,131 Descending Chicago Center
Tue 07:21:40 AM 41.3281 -84.0531 68° East 425 489 15,900 -1,377 Descending Chicago Center
Tue 07:22:41 AM 41.3700 -83.9136 68° East 413 475 14,500 -1,388 Descending Chicago Center
Tue 07:23:41 AM 41.4114 -83.7775 68° East 403 464 13,100 -1,289 Descending Chicago Center
Tue 07:24:42 AM 41.4514 -83.6464 68° East 395 455 11,900 -1,174 Descending Chicago Center
Tue 07:25:59 AM 41.5139 -83.4819 63° Northeast 359 413 10,400 -1,146 Descending Cleveland Center
Tue 07:26:11 AM 41.5264 -83.4536 59° Northeast 359 413 10,200 -387 Descending Cleveland Center
Tue 07:27:01 AM 41.5606 -83.3647 63° Northeast 359 413 10,000 -98 Descending Cleveland Center
Tue 07:27:12 AM 41.5717 -83.3342 64° Northeast 354 407 10,100  Climbing Cleveland Center
Tue 07:28:02 AM 41.6103 -83.2400 61° Northeast 352 405 10,000  Descending Cleveland Center
Tue 07:28:07 AM 41.6133 -83.2283 71° East 350 403 10,100 -290 Climbing Cleveland Center
Tue 07:29:04 AM 41.6478 -83.1433 62° Northeast 331 381 9,700 -600 Descending Cleveland Center
Tue 07:29:07 AM 41.6547 -83.1278 59° Northeast 292 336 9,500 -1,180 Descending Cleveland Center
Tue 07:30:05 AM 41.6850 -83.0500 62° Northeast 290 334 8,500 -1,180 Descending Cleveland Center
Tue 07:30:08 AM 41.6914 -83.0294 67° East 290 334 8,300 -484 Descending Cleveland Center
Tue 07:31:07 AM 41.7303 -82.9394 60° Northeast 287 330 8,000 -295 Descending Cleveland Center
Tue 07:31:09 AM 41.7297 -82.9394 180° South 283 326 8,000  Level Cleveland Center
Tue 07:32:09 AM 41.8000 -82.9047 20° North 272 313 8,000 98 Level Cleveland Center
Tue 07:32:10 AM 41.8036 -82.9019 30° Northeast 268 308 8,100 -492 Climbing Cleveland Center
Tue 07:33:10 AM 41.8708 -82.8739 17° North 269 310 7,500 -689 Descending Cleveland Center
Tue 07:33:11 AM 41.8769 -82.8725 10° North 271 312 7,400 -1,065 Descending Cleveland Center
Tue 07:34:12 AM 41.9483 -82.8425 17° North 267 307 6,400 -934 Descending Cleveland Center
Tue 07:35:13 AM 42.0122 -82.8150 18° North 268 308 5,500 -1,078 Descending Cleveland Center
Tue 07:36:20 AM 42.0994 -82.8119 North 250 288 4,100 -1,131 Descending Cleveland Center
Tue 07:37:15 AM 42.1633 -82.8233 352° North 246 283 3,200 -857 Descending Cleveland Center
Tue 07:37:16 AM 42.1511 -82.8200 169° South 255 293 3,300 -197 Climbing Cleveland Center
Tue 07:38:16 AM 42.2233 -82.8342 352° North 217 250 3,000 -290 Descending Cleveland Center
Tue 07:38:18 AM 42.2261 -82.8342 360° North 236 272 3,000  Level Cleveland Center
Tue 07:39:20 AM 42.2714 -82.8700 330° Northwest 198 228 3,000 50 Level Cleveland Center
Tue 07:40:17 AM 42.3081 -82.9072 323° Northwest 165 190 3,100  Climbing Cleveland Center
Tue 07:40:21 AM 42.3100 -82.9086 332° Northwest 179 206 3,000 -590 Descending Cleveland Center
Tue 07:41:18 AM 42.3433 -82.9403 325° Northwest 149 171 2,500 -581 Descending Cleveland Center
Tue 07:41:23 AM 42.3431 -82.9425 260° West 159 183 2,400 -873 Descending Cleveland Center
Tue 07:42:13 AM 42.3706 -82.9694 324° Northwest 134 154 1,700 -774 Descending Cleveland Center
Tue 07:42:25 AM 42.3742 -82.9728 326° Northwest 149 171 1,600 -658 Descending Cleveland Center
Tue 07:43:26 AM 42.3994 -82.9994 322° Northwest 133 153 900 -689 Descending Cleveland Center

Login

Don't have an account? Register now (free) for customized features, flight alerts, and more!